tititudorancea.com
Station Historical Data
Daily Summary for September 13, 2018 Units:  Metric    English   Both
« Previous Day
Next Day »
Daily Weekly Monthly Yearly Custom
  High: Low: Average:
Temperature: -17.8 °C 3.4 °C 9.9 °C
Dew Point: -17.8 °C 1.7 °C 5.4 °C
Humidity: Humidity % 55 % 74 %
Wind Speed: 0 km/h 0 km/h 10 km/h
Wind Gust: 0 km/h - -
Wind:- - WNW
Pressure: 0 hPa 1015.8 hPa -
Precipitation: 0 mm    
Historical Graphs
 
 
Ararat weather Find more about Weather in Ararat, AU


 



 


Tabular Data for September 13, 2018
Time Temperature Dew Point Pressure Wind Wind Speed Wind Gust Humidity Rainfall Rate (Hourly)
-17.8 °C -17.8 °C 0 hPa Calm     Humidity % 0 mm
00:04 8.1 °C 3.4 °C 1017.8 hPa NW 9.3 km/h 6.1 km/h 72 % 0 mm
00:09 7.8 °C 3.2 °C 1017.8 hPa NW 5.6 km/h 5 km/h 73 % 0 mm
00:14 7.6 °C 3.3 °C 1017.5 hPa NW 12.9 km/h 8 km/h 74 % 0 mm
00:19 7.4 °C 3.3 °C 1017.8 hPa NW 8 km/h 7.1 km/h 75 % 0 mm
00:24 7.4 °C 3.4 °C 1017.8 hPa NW 8 km/h 6.3 km/h 76 % 0 mm
00:29 7.4 °C 3.4 °C 1017.8 hPa NW 8 km/h 6 km/h 76 % 0 mm
00:34 7.4 °C 3.4 °C 1017.8 hPa NW 9.3 km/h 6.3 km/h 76 % 0 mm
00:39 7.4 °C 3.4 °C 1017.8 hPa NW 7.4 km/h 5.3 km/h 76 % 0 mm
00:44 7.4 °C 3.4 °C 1017.8 hPa NW 5.6 km/h 5.6 km/h 76 % 0 mm
00:49 7.3 °C 3.3 °C 1017.8 hPa NW 5.6 km/h 3.1 km/h 76 % 0 mm
00:54 7.2 °C 3.3 °C 1017.8 hPa NW 5.6 km/h 3.5 km/h 76 % 0 mm
00:59 7.1 °C 3.3 °C 1017.8 hPa NW 5.6 km/h 3.5 km/h 77 % 0 mm
01:04 7 °C 3.2 °C 1018.2 hPa Calm     77 % 0 mm
01:09 6.8 °C 3.1 °C 1018.2 hPa Calm     77 % 0 mm
01:14 6.7 °C 2.9 °C 1018.2 hPa Calm     77 % 0 mm
01:19 6.4 °C 2.7 °C 1017.8 hPa Calm     77 % 0 mm
01:24 6.3 °C 2.7 °C 1017.8 hPa Calm     78 % 0 mm
01:29 6.1 °C 2.5 °C 1017.8 hPa NW 1.9 km/h   78 % 0 mm
01:34 5.8 °C 2.4 °C 1017.8 hPa Calm     79 % 0 mm
01:39 5.7 °C 2.5 °C 1017.8 hPa NW 1.9 km/h 0.8 km/h 80 % 0 mm
01:44 5.5 °C 2.5 °C 1017.5 hPa NW 3.2 km/h 1.8 km/h 81 % 0 mm
01:49 5.5 °C 2.7 °C 1017.5 hPa NW 1.9 km/h   82 % 0 mm
01:54 5.3 °C 2.5 °C 1017.8 hPa Calm     82 % 0 mm
01:59 5.1 °C 2.3 °C 1017.8 hPa Calm     82 % 0 mm
02:04 4.9 °C 2.2 °C 1017.5 hPa Calm     83 % 0 mm
02:09 4.8 °C 2.3 °C 1017.5 hPa NW 5.6 km/h 3.1 km/h 84 % 0 mm
02:14 4.8 °C 2.3 °C 1017.5 hPa NW 1.9 km/h 0.6 km/h 84 % 0 mm
02:19 4.6 °C 2.1 °C 1017.5 hPa NW 3.2 km/h 1.1 km/h 84 % 0 mm
02:24 4.5 °C 2.2 °C 1017.5 hPa NW 5.6 km/h 3.9 km/h 85 % 0 mm
02:29 4.6 °C 2.4 °C 1017.5 hPa NW 5.6 km/h 3.7 km/h 86 % 0 mm
02:34 4.6 °C 2.4 °C 1017.5 hPa NW 3.7 km/h 1 km/h 86 % 0 mm
02:39 4.6 °C 2.4 °C 1017.5 hPa Calm     86 % 0 mm
02:44 4.6 °C 2.4 °C 1017.5 hPa Calm     86 % 0 mm
02:49 4.5 °C 2.3 °C 1017.5 hPa Calm     86 % 0 mm
02:54 4.4 °C 2.3 °C 1017.5 hPa NW 3.7 km/h   86 % 0 mm
02:59 4.2 °C 2.1 °C 1017.5 hPa North 3.7 km/h 1.3 km/h 86 % 0 mm
03:04 4.1 °C 2 °C 1017.5 hPa Calm     86 % 0 mm
03:09 3.9 °C 1.8 °C 1017.5 hPa Calm     86 % 0 mm
03:14 3.8 °C 1.8 °C 1017.5 hPa North 1.9 km/h   87 % 0 mm
03:19 3.7 °C 1.7 °C 1017.5 hPa Calm     87 % 0 mm
03:24 3.6 °C 1.7 °C 1017.5 hPa Calm     87 % 0 mm
03:29 3.6 °C 1.8 °C 1017.5 hPa Calm     88 % 0 mm
03:34 3.5 °C 1.7 °C 1017.5 hPa Calm     88 % 0 mm
03:39 3.5 °C 1.8 °C 1017.5 hPa NW 1.6 km/h 1.4 km/h 89 % 0 mm
03:44 3.6 °C 1.9 °C 1017.5 hPa NW 5.6 km/h 4.8 km/h 89 % 0 mm
03:49 3.6 °C 1.9 °C 1017.5 hPa Calm     89 % 0 mm
03:54 3.8 °C 2.3 °C 1017.5 hPa North 5.6 km/h 2.6 km/h 90 % 0 mm
03:59 4.4 °C 3.1 °C 1017.5 hPa NW 5.6 km/h 2.9 km/h 91 % 0 mm
04:04 4.9 °C 3.6 °C 1017.5 hPa NW 5.6 km/h 4.5 km/h 91 % 0 mm
04:09 5.2 °C 3.7 °C 1017.5 hPa NW 5.6 km/h 5.5 km/h 90 % 0 mm
04:14 5.4 °C 3.7 °C 1017.5 hPa NW 5.6 km/h 1.9 km/h 89 % 0 mm
04:19 5.6 °C 3.7 °C 1017.8 hPa NW 3.7 km/h 0.3 km/h 88 % 0 mm
04:24 5.4 °C 3.3 °C 1017.8 hPa NW 3.2 km/h 0.8 km/h 86 % 0 mm
04:29 4.8 °C 2.7 °C 1017.8 hPa NW 3.7 km/h 1.8 km/h 86 % 0 mm
04:34 4.6 °C 2.4 °C 1017.8 hPa Calm     86 % 0 mm
04:39 4.3 °C 2.2 °C 1017.8 hPa Calm     86 % 0 mm
04:44 4.1 °C 2.1 °C 1017.8 hPa NW 3.2 km/h 1.4 km/h 87 % 0 mm
04:49 3.9 °C 2 °C 1017.8 hPa NW 3.7 km/h 2.1 km/h 87 % 0 mm
04:54 3.9 °C 1.9 °C 1017.8 hPa Calm     87 % 0 mm
04:59 3.7 °C 1.7 °C 1017.8 hPa Calm     87 % 0 mm
05:04 3.6 °C 1.8 °C 1018.2 hPa Calm     88 % 0 mm
05:09 3.4 °C 1.7 °C 1018.2 hPa NW 3.7 km/h 3.1 km/h 88 % 0 mm
05:14 3.4 °C 1.8 °C 1018.2 hPa NW 5.6 km/h 4 km/h 89 % 0 mm
05:19 3.4 °C 1.8 °C 1018.2 hPa NW 4.8 km/h 2.4 km/h 89 % 0 mm
05:24 3.5 °C 2 °C 1018.2 hPa North 3.7 km/h 2.6 km/h 90 % 0 mm
05:29 3.7 °C 2.4 °C 1018.2 hPa NW 5.6 km/h 3.5 km/h 91 % 0 mm
05:34 4 °C 2.7 °C 1018.2 hPa North 5.6 km/h 3.9 km/h 91 % 0 mm
05:39 4.3 °C 2.9 °C 1018.2 hPa NW 7.4 km/h 6.8 km/h 91 % 0 mm
05:44 4.4 °C 3.1 °C 1018.2 hPa NW 5.6 km/h 3.1 km/h 91 % 0 mm
05:49 4.5 °C 3 °C 1018.2 hPa NW 6.4 km/h 5.8 km/h 90 % 0 mm
05:54 4.6 °C 3.1 °C 1018.2 hPa NW 5.6 km/h 4.8 km/h 90 % 0 mm
05:59 4.7 °C 3.2 °C 1018.2 hPa NW 5.6 km/h 2.7 km/h 90 % 0 mm
06:04 4.7 °C 3.2 °C 1018.2 hPa North 5.6 km/h 3.9 km/h 90 % 0 mm
06:09 4.7 °C 3.2 °C 1018.2 hPa North 5.6 km/h 4.2 km/h 90 % 0 mm
06:14 4.8 °C 3.3 °C 1018.2 hPa North 9.3 km/h 5.6 km/h 90 % 0 mm
06:19 4.9 °C 3.4 °C 1018.5 hPa NW 9.3 km/h 7.6 km/h 90 % 0 mm
06:24 4.8 °C 3.3 °C 1018.5 hPa North 7.4 km/h 6.6 km/h 90 % 0 mm
06:29 4.8 °C 3.3 °C 1018.5 hPa North 7.4 km/h 6.3 km/h 90 % 0 mm
06:34 4.8 °C 3.3 °C 1018.5 hPa North 7.4 km/h 3.1 km/h 90 % 0 mm
06:39 4.7 °C 3.2 °C 1018.5 hPa NW 6.4 km/h 3.9 km/h 90 % 0 mm
06:44 4.7 °C 3.2 °C 1018.8 hPa NW 5.6 km/h 3.9 km/h 90 % 0 mm
06:49 4.7 °C 3.2 °C 1018.8 hPa North 7.4 km/h 4.5 km/h 90 % 0 mm
06:54 4.8 °C 3.5 °C 1018.8 hPa North 8 km/h 6.1 km/h 91 % 0 mm
06:59 5.1 °C 3.8 °C 1018.8 hPa North 8 km/h 6.8 km/h 91 % 0 mm
07:04 5.4 °C 4.1 °C 1018.8 hPa North 9.3 km/h 8.7 km/h 91 % 0 mm
07:09 5.6 °C 4.3 °C 1019.2 hPa NW 9.3 km/h 9 km/h 91 % 0 mm
07:14 5.9 °C 4.6 °C 1019.2 hPa NNW 14.8 km/h 8.9 km/h 91 % 0 mm
07:19 6.1 °C 4.7 °C 1019.2 hPa North 11.1 km/h 7.2 km/h 91 % 0 mm
07:24 6.2 °C 4.7 °C 1019.2 hPa NNW 9.3 km/h 5.3 km/h 90 % 0 mm
07:29 6.4 °C 4.9 °C 1019.2 hPa North 9.3 km/h 5.5 km/h 90 % 0 mm
07:34 6.6 °C 5.1 °C 1019.2 hPa NNW 5.6 km/h 4.7 km/h 90 % 0 mm
07:39 6.7 °C 5.2 °C 1019.2 hPa North 9.3 km/h 4.3 km/h 90 % 0 mm
07:44 6.9 °C 5.4 °C 1019.2 hPa NNW 11.1 km/h 5.8 km/h 90 % 0 mm
07:49 7.1 °C 5.4 °C 1019.2 hPa NNW 9.7 km/h 8 km/h 89 % 0 mm
07:54 7.2 °C 5.6 °C 1019.2 hPa North 11.1 km/h 9.3 km/h 89 % 0 mm
07:59 7.3 °C 5.4 °C 1019.2 hPa NNW 8 km/h 5.6 km/h 88 % 0 mm
08:04 7.4 °C 5.6 °C 1019.2 hPa North 9.3 km/h 7.6 km/h 88 % 0 mm
08:09 7.6 °C 5.7 °C 1019.2 hPa NNW 9.3 km/h 8.5 km/h 88 % 0 mm
08:14 7.7 °C 5.8 °C 1019.2 hPa NNW 9.3 km/h 7.1 km/h 88 % 0 mm
08:19 8 °C 6.1 °C 1019.2 hPa North 7.4 km/h 5.3 km/h 88 % 0 mm
08:24 8.3 °C 6.2 °C 1019.2 hPa North 13 km/h 7.2 km/h 87 % 0 mm
08:29 8.5 °C 6.3 °C 1019.2 hPa NNW 16.7 km/h 9.8 km/h 86 % 0 mm
08:34 8.8 °C 6.4 °C 1019.2 hPa NNW 16.7 km/h 10.8 km/h 85 % 0 mm
08:35 8.8 °C 6.4 °C 1019.2 hPa NNW 14.8 km/h 9 km/h 85 % 0 mm
08:44 9.4 °C 6.8 °C 1019.2 hPa NNW 14.8 km/h 14.8 km/h 84 % 0 mm
08:49 9.5 °C 6.8 °C 1019.2 hPa NNW 16.1 km/h 8.5 km/h 83 % 0 mm
08:54 9.7 °C 6.7 °C 1019.5 hPa North 18.5 km/h 10.5 km/h 82 % 0 mm
08:59 9.9 °C 6.8 °C 1019.5 hPa North 14.8 km/h 10.8 km/h 81 % 0 mm
09:04 9.9 °C 6.8 °C 1019.2 hPa North 14.8 km/h 12.2 km/h 81 % 0 mm
09:09 10.1 °C 6.8 °C 1019.5 hPa North 16.7 km/h 12.7 km/h 80 % 0 mm
09:14 10.2 °C 6.9 °C 1019.2 hPa NNE 16.7 km/h 10.9 km/h 80 % 0 mm
09:19 10.4 °C 7.3 °C 1019.2 hPa NNE 18.5 km/h 10.1 km/h 81 % 0 mm
09:24 10.4 °C 6.9 °C 1019.2 hPa NNE 17.7 km/h 13.5 km/h 79 % 0 mm
09:29 10.4 °C 6.9 °C 1019.2 hPa North 20.4 km/h 13.2 km/h 79 % 0 mm
09:34 10.5 °C 7.2 °C 1019.2 hPa NNE 17.7 km/h 12.4 km/h 80 % 0 mm
09:39 10.4 °C 7.2 °C 1019.2 hPa NNE 13 km/h 11.7 km/h 80 % 0 mm
09:44 10.8 °C 7.5 °C 1019.2 hPa NNE 18.5 km/h 13.2 km/h 80 % 0 mm
09:49 11.2 °C 7.4 °C 1019.2 hPa NNE 16.7 km/h 12.2 km/h 78 % 0 mm
09:54 11.4 °C 7.5 °C 1019.2 hPa North 16.7 km/h 8.9 km/h 77 % 0 mm
09:59 11.6 °C 7.4 °C 1019.2 hPa North 24.1 km/h 13 km/h 76 % 0 mm
10:04 11.8 °C 7.7 °C 1019.2 hPa North 14.5 km/h 9.5 km/h 76 % 0 mm
10:09 12.1 °C 7.8 °C 1019.2 hPa North 16.7 km/h 8.4 km/h 75 % 0 mm
10:14 12.1 °C 7.3 °C 1019.2 hPa North 14.8 km/h 12.6 km/h 73 % 0 mm
10:19 12.1 °C 7.3 °C 1019.2 hPa North 22.2 km/h 9.5 km/h 73 % 0 mm
10:24 12.2 °C 7.3 °C 1019.2 hPa North 20.4 km/h 9.8 km/h 72 % 0 mm
10:29 12.3 °C 7.2 °C 1019.2 hPa North 22.2 km/h 14.8 km/h 71 % 0 mm
10:34 12.5 °C 7.6 °C 1019.2 hPa NW 22.5 km/h 12.2 km/h 72 % 0 mm
10:39 12.4 °C 7.3 °C 1019.2 hPa NW 16.7 km/h 12.6 km/h 71 % 0 mm
10:44 12.2 °C 6.9 °C 1019.2 hPa North 14.8 km/h 13.2 km/h 70 % 0 mm
10:49 12.4 °C 7.5 °C 1019.2 hPa North 22.2 km/h 12.9 km/h 72 % 0 mm
10:54 12.8 °C 7.7 °C 1019.2 hPa NNW 14.8 km/h 7.1 km/h 71 % 0 mm
10:59 12.9 °C 7.6 °C 1018.8 hPa North 18.5 km/h 12.6 km/h 70 % 0 mm
11:04 13.1 °C 8.2 °C 1018.8 hPa North 16.7 km/h 12.4 km/h 72 % 0 mm
11:09 13.3 °C 8 °C 1018.8 hPa North 18.5 km/h 11.3 km/h 70 % 0 mm
11:14 13.3 °C 7.9 °C 1018.8 hPa North 16.1 km/h 12.2 km/h 70 % 0 mm
11:19 13.1 °C 7.7 °C 1018.8 hPa NNE 18.5 km/h 19.2 km/h 70 % 0 mm
11:24 13.1 °C 7.6 °C 1018.8 hPa NNE 18.5 km/h 10.3 km/h 69 % 0 mm
11:29 13.3 °C 7.9 °C 1018.8 hPa North 18.5 km/h 12.9 km/h 70 % 0 mm
11:34 13.6 °C 7.6 °C 1018.8 hPa NNE 18.5 km/h 7.1 km/h 67 % 0 mm
11:39 13.8 °C 7.8 °C 1018.8 hPa NW 14.8 km/h 11.3 km/h 67 % 0 mm
11:44 13.8 °C 7.4 °C 1018.8 hPa NW 18.5 km/h 11.9 km/h 65 % 0 mm
11:49 13.3 °C 7.3 °C 1018.8 hPa North 24.1 km/h 11.3 km/h 67 % 0 mm
11:54 13.8 °C 7.9 °C 1018.8 hPa NNW 16.7 km/h 11.7 km/h 68 % 0 mm
11:59 14.1 °C 7.6 °C 1018.8 hPa NNW 22.2 km/h 14.8 km/h 65 % 0 mm
12:04 14.1 °C 8 °C 1018.8 hPa NW 14.8 km/h 5 km/h 67 % 0 mm
12:09 14.4 °C 7.9 °C 1018.8 hPa NW 20.4 km/h 15.3 km/h 65 % 0 mm
12:14 14.4 °C 7.9 °C 1018.5 hPa North 18.5 km/h 10.8 km/h 65 % 0 mm
12:19 14.3 °C 8.1 °C 1018.5 hPa NW 18.5 km/h 14.2 km/h 66 % 0 mm
12:24 14.4 °C 7.9 °C 1018.5 hPa North 22.2 km/h 15.8 km/h 65 % 0 mm
12:29 14.4 °C 8.1 °C 1018.5 hPa North 13 km/h 7.2 km/h 66 % 0 mm
12:34 14.4 °C 8.1 °C 1018.5 hPa NW 20.9 km/h 13.2 km/h 66 % 0 mm
12:39 14.1 °C 7.8 °C 1018.2 hPa NW 11.3 km/h 7.6 km/h 66 % 0 mm
12:44 13.9 °C 7.6 °C 1018.2 hPa NW 20.4 km/h 12.2 km/h 66 % 0 mm
12:49 13.8 °C 7.8 °C 1018.2 hPa NW 18.5 km/h 14.3 km/h 67 % 0 mm
12:54 13.9 °C 7.7 °C 1018.2 hPa North 14.8 km/h 10.8 km/h 66 % 0 mm
12:59 14.1 °C 7.8 °C 1018.2 hPa North 18.5 km/h 16.4 km/h 66 % 0 mm
13:04 14.4 °C 7.9 °C 1018.2 hPa NNW 20.4 km/h 15.4 km/h 65 % 0 mm
13:09 14.5 °C 7.8 °C 1018.2 hPa NNW 22.2 km/h 13.2 km/h 64 % 0 mm
13:14 14.2 °C 7.5 °C 1018.2 hPa North 18.5 km/h 14.3 km/h 64 % 0 mm
13:19 14.3 °C 7.8 °C 1017.8 hPa North 11.3 km/h 9.8 km/h 65 % 0 mm
13:24 14.6 °C 8.1 °C 1017.8 hPa WNW 12.9 km/h 9.7 km/h 65 % 0 mm
13:29 14.7 °C 7.7 °C 1017.5 hPa NW 14.8 km/h 7.9 km/h 63 % 0 mm
13:34 14.8 °C 7.4 °C 1017.5 hPa NW 20.4 km/h 15.6 km/h 61 % 0 mm
13:39 14.7 °C 7.5 °C 1017.5 hPa NW 18.5 km/h 13.7 km/h 62 % 0 mm
13:44 14.7 °C 7.7 °C 1017.5 hPa North 19.3 km/h 15.1 km/h 63 % 0 mm
13:49 14.8 °C 7.8 °C 1017.5 hPa North 18.5 km/h 14.2 km/h 63 % 0 mm
13:54 14.8 °C 7.6 °C 1017.5 hPa North 16.7 km/h 13.2 km/h 62 % 0 mm
13:59 15 °C 7.6 °C 1017.5 hPa North 29.6 km/h 12.7 km/h 61 % 0 mm
14:04 15.1 °C 7.7 °C 1017.2 hPa NW 16.7 km/h 14.5 km/h 61 % 0 mm
14:09 15.6 °C 7.8 °C 1017.5 hPa NW 13 km/h 7.9 km/h 60 % 0 mm
14:14 15.4 °C 7.7 °C 1017.2 hPa North 18.5 km/h 13.8 km/h 60 % 0 mm
14:19 15.4 °C 7.7 °C 1017.2 hPa North 22.2 km/h 10 km/h 60 % 0 mm
14:24 15.5 °C 7.5 °C 1017.2 hPa North 14.8 km/h 10 km/h 59 % 0 mm
14:29 15.2 °C 7.3 °C 1017.2 hPa WNW 16.7 km/h 9.2 km/h 59 % 0 mm
14:34 15.3 °C 7.6 °C 1017.2 hPa North 16.7 km/h 11.6 km/h 60 % 0 mm
14:39 15.9 °C 7.7 °C 1017.2 hPa North 16.7 km/h 15.1 km/h 58 % 0 mm
14:44 15.7 °C 7.5 °C 1017.2 hPa NW 18.5 km/h 12.6 km/h 58 % 0 mm
14:49 15.7 °C 7.4 °C 1016.8 hPa NW 18.5 km/h 15.4 km/h 58 % 0 mm
14:54 15.7 °C 7.5 °C 1016.8 hPa NW 22.2 km/h 18.3 km/h 58 % 0 mm
14:59 15.6 °C 7.3 °C 1016.8 hPa NW 24.1 km/h 14.3 km/h 58 % 0 mm
15:04 15.7 °C 7.7 °C 1016.5 hPa North 14.8 km/h 10.6 km/h 59 % 0 mm
15:09 16.1 °C 7.8 °C 1016.5 hPa NNE 17.7 km/h 13.5 km/h 58 % 0 mm
15:14 16.2 °C 7.4 °C 1016.5 hPa NW 29.6 km/h 15.1 km/h 56 % 0 mm
15:19 15.8 °C 7.3 °C 1016.5 hPa NNW 18.5 km/h 11.9 km/h 57 % 0 mm
15:24 16.1 °C 7.6 °C 1016.5 hPa North 14.8 km/h 10.8 km/h 57 % 0 mm
15:29 16.1 °C 7.6 °C 1016.5 hPa NNW 20.4 km/h 12.4 km/h 57 % 0 mm
15:34 16.1 °C 7.6 °C 1016.5 hPa NNW 16.7 km/h 8.9 km/h 57 % 0 mm
15:39 16.1 °C 7.3 °C 1016.5 hPa NNW 18.5 km/h 10.5 km/h 56 % 0 mm
15:44 16.1 °C 7.6 °C 1016.5 hPa NNW 18.5 km/h 12.6 km/h 57 % 0 mm
15:49 16.1 °C 7.3 °C 1016.5 hPa NNW 22.2 km/h 11.3 km/h 56 % 0 mm
15:54 16.1 °C 7.3 °C 1016.5 hPa North 24.1 km/h 10.9 km/h 56 % 0 mm
15:59 16.2 °C 7.4 °C 1016.1 hPa North 25.9 km/h 12.6 km/h 56 % 0 mm
16:04 16.1 °C 7.1 °C 1016.1 hPa NNE 27.8 km/h 17.7 km/h 55 % 0 mm
16:09 16.2 °C 7.4 °C 1016.1 hPa North 19.3 km/h 11.3 km/h 56 % 0 mm
16:14 16.1 °C 7.3 °C 1016.1 hPa North 20.4 km/h 10.5 km/h 56 % 0 mm
16:19 16.2 °C 7.4 °C 1016.1 hPa North 16.7 km/h 8.4 km/h 56 % 0 mm
16:24 16.2 °C 7.2 °C 1016.1 hPa North 20.4 km/h 10.5 km/h 55 % 0 mm
16:29 16.1 °C 7.3 °C 1016.1 hPa North 25.7 km/h 12.1 km/h 56 % 0 mm
16:34 16 °C 7.2 °C 1016.1 hPa North 31.5 km/h 12.6 km/h 56 % 0 mm
16:39 16 °C 7.2 °C 1016.1 hPa North 13 km/h 8.2 km/h 56 % 0 mm
16:44 15.9 °C 7.1 °C 1016.1 hPa North 22.5 km/h 16.7 km/h 56 % 0 mm
16:49 15.7 °C 7.2 °C 1016.1 hPa North 24.1 km/h 15.1 km/h 57 % 0 mm
16:54 15.7 °C 7.2 °C 1016.1 hPa North 22.2 km/h 16.7 km/h 57 % 0 mm
16:59 15.7 °C 7.2 °C 1016.1 hPa North 20.4 km/h 12.4 km/h 57 % 0 mm
17:04 15.6 °C 7.1 °C 1016.1 hPa North 13 km/h 8.9 km/h 57 % 0 mm
17:09 15.7 °C 7.2 °C 1016.1 hPa NNW 18.5 km/h 12.9 km/h 57 % 0 mm
17:14 15.6 °C 7.1 °C 1015.8 hPa North 22.2 km/h 11.4 km/h 57 % 0 mm
17:19 15.6 °C 7.1 °C 1015.8 hPa North 18.5 km/h 9.7 km/h 57 % 0 mm
17:24 15.4 °C 6.9 °C 1016.1 hPa North 14.8 km/h 7.1 km/h 57 % 0 mm
17:29 15.4 °C 7.2 °C 1015.8 hPa North 13 km/h 8.7 km/h 58 % 0 mm
17:34 15.4 °C 7.2 °C 1015.8 hPa North 18.5 km/h 7.6 km/h 58 % 0 mm
17:39 15.3 °C 7.1 °C 1016.1 hPa North 14.5 km/h 10.5 km/h 58 % 0 mm
17:44 15.2 °C 6.9 °C 1015.8 hPa North 11.3 km/h 6.9 km/h 58 % 0 mm
17:49 15.1 °C 7.1 °C 1016.1 hPa North 14.8 km/h 7.6 km/h 59 % 0 mm
17:54 14.9 °C 7 °C 1016.1 hPa North 12.9 km/h 7.9 km/h 59 % 0 mm
17:59 14.8 °C 7.1 °C 1016.1 hPa North 9.3 km/h 8 km/h 60 % 0 mm
18:04 14.7 °C 7 °C 1016.1 hPa North 9.3 km/h 5.8 km/h 60 % 0 mm
18:09 14.4 °C 7 °C 1016.1 hPa North 11.1 km/h 7.7 km/h 61 % 0 mm
18:14 14.3 °C 6.8 °C 1016.1 hPa North 9.3 km/h 5.5 km/h 61 % 0 mm
18:19 14.1 °C 6.9 °C 1016.1 hPa North 9.7 km/h 7.1 km/h 62 % 0 mm
18:24 13.9 °C 6.8 °C 1016.1 hPa North 7.4 km/h 7.6 km/h 62 % 0 mm
18:29 13.8 °C 6.8 °C 1016.1 hPa North 7.4 km/h 5.3 km/h 63 % 0 mm
18:34 13.6 °C 6.7 °C 1016.5 hPa North 5.6 km/h 3.2 km/h 63 % 0 mm
18:39 13.5 °C 6.8 °C 1016.5 hPa North 3.7 km/h 1.9 km/h 64 % 0 mm
18:44 13.3 °C 6.7 °C 1016.5 hPa North 1.9 km/h   64 % 0 mm
18:49 13.2 °C 6.7 °C 1016.5 hPa Calm     65 % 0 mm
18:54 12.9 °C 6.7 °C 1016.5 hPa Calm     66 % 0 mm
18:59 12.7 °C 6.5 °C 1016.5 hPa Calm     66 % 0 mm
19:04 12.5 °C 6.6 °C 1016.5 hPa Calm     67 % 0 mm
19:09 12.3 °C 6.6 °C 1016.5 hPa Calm     68 % 0 mm
19:14 12.1 °C 6.4 °C 1016.5 hPa Calm     68 % 0 mm
19:19 11.9 °C 6.4 °C 1016.5 hPa Calm     69 % 0 mm
19:24 11.7 °C 6.4 °C 1016.5 hPa Calm     70 % 0 mm
19:29 11.4 °C 6.2 °C 1016.5 hPa Calm     70 % 0 mm
19:34 11.2 °C 6.2 °C 1016.5 hPa Calm     71 % 0 mm
19:39 11.1 °C 6 °C 1016.5 hPa Calm     71 % 0 mm
19:44 10.9 °C 6.1 °C 1016.5 hPa Calm     72 % 0 mm
19:49 10.7 °C 6.1 °C 1016.8 hPa North 3.7 km/h 2.7 km/h 73 % 0 mm
19:54 10.8 °C 6.3 °C 1016.8 hPa North 3.7 km/h 2.1 km/h 74 % 0 mm
19:59 10.8 °C 6.4 °C 1016.8 hPa North 3.7 km/h 2.4 km/h 74 % 0 mm
20:04 10.9 °C 6.4 °C 1016.8 hPa North 5.6 km/h 3.7 km/h 74 % 0 mm
20:09 10.8 °C 6.4 °C 1016.8 hPa North 5.6 km/h 1.8 km/h 74 % 0 mm
20:14 10.7 °C 6.1 °C 1016.8 hPa North 3.7 km/h 0.8 km/h 73 % 0 mm
20:19 10.5 °C 6.1 °C 1016.8 hPa North 1.9 km/h 2.1 km/h 74 % 0 mm
20:24 10.3 °C 5.8 °C 1016.8 hPa North 1.9 km/h   74 % 0 mm
20:29 10.1 °C 5.9 °C 1016.8 hPa North 3.7 km/h 1.4 km/h 75 % 0 mm
20:34 10.1 °C 5.8 °C 1016.8 hPa North 3.7 km/h 0.3 km/h 75 % 0 mm
20:39 9.9 °C 5.7 °C 1016.8 hPa North 1.6 km/h 0.2 km/h 75 % 0 mm
20:44 9.8 °C 5.6 °C 1016.8 hPa Calm     75 % 0 mm
20:49 9.7 °C 5.7 °C 1016.8 hPa North 3.7 km/h 2.1 km/h 76 % 0 mm
20:54 9.7 °C 5.8 °C 1016.8 hPa North 3.7 km/h 2.1 km/h 77 % 0 mm
20:59 9.5 °C 5.7 °C 1016.8 hPa North 5.6 km/h 2.1 km/h 77 % 0 mm
21:04 9.3 °C 5.4 °C 1016.8 hPa North 1.9 km/h 1.4 km/h 77 % 0 mm
21:09 9.1 °C 5.5 °C 1016.8 hPa North 1.9 km/h   78 % 0 mm
21:14 8.9 °C 5.5 °C 1016.8 hPa Calm     79 % 0 mm
21:19 8.8 °C 5.3 °C 1016.8 hPa Calm     79 % 0 mm
21:24 8.7 °C 5.4 °C 1017.2 hPa North 1.9 km/h 0.3 km/h 80 % 0 mm
21:29 8.6 °C 5.6 °C 1017.2 hPa Calm     81 % 0 mm
21:34 8.5 °C 5.4 °C 1017.2 hPa Calm     81 % 0 mm
21:39 8.5 °C 5.6 °C 1017.2 hPa Calm     82 % 0 mm
21:44 8.5 °C 5.6 °C 1017.2 hPa Calm     82 % 0 mm
21:49 8.5 °C 5.6 °C 1017.2 hPa Calm     82 % 0 mm
21:54 8.5 °C 5.6 °C 1016.8 hPa Calm     82 % 0 mm
21:59 8.5 °C 5.6 °C 1016.8 hPa Calm     82 % 0 mm
22:04 8.4 °C 5.6 °C 1016.8 hPa Calm     82 % 0 mm
22:09 8.4 °C 5.5 °C 1016.8 hPa Calm     82 % 0 mm
22:14 8.3 °C 5.4 °C 1016.8 hPa Calm     82 % 0 mm
22:19 8.2 °C 5.3 °C 1016.8 hPa Calm     82 % 0 mm
22:24 8.1 °C 5.2 °C 1016.8 hPa North 1.6 km/h 1.1 km/h 82 % 0 mm
22:29 8 °C 5.1 °C 1016.8 hPa North 5.6 km/h 1.3 km/h 82 % 0 mm
22:34 7.9 °C 5.1 °C 1016.8 hPa North 4.8 km/h 3.1 km/h 82 % 0 mm
22:39 8.1 °C 5.2 °C 1016.8 hPa North 7.4 km/h 4.2 km/h 82 % 0 mm
22:44 8.4 °C 5.2 °C 1016.5 hPa North 5.6 km/h 6.4 km/h 80 % 0 mm
22:49 8.7 °C 5.1 °C 1016.5 hPa North 6.4 km/h 3.5 km/h 78 % 0 mm
22:54 8.9 °C 4.7 °C 1016.5 hPa North 6.4 km/h 5.3 km/h 75 % 0 mm
22:59 9.1 °C 4.7 °C 1016.5 hPa North 8 km/h 5.3 km/h 74 % 0 mm
23:04 9.2 °C 4.4 °C 1016.5 hPa North 7.4 km/h 4.3 km/h 72 % 0 mm
23:09 9.2 °C 4.2 °C 1016.5 hPa North 5.6 km/h 3.4 km/h 71 % 0 mm
23:14 9.3 °C 4.3 °C 1016.5 hPa North 6.4 km/h 4.2 km/h 71 % 0 mm
23:19 9.3 °C 4.1 °C 1016.5 hPa North 8 km/h 6.6 km/h 70 % 0 mm
23:24 9.2 °C 4.1 °C 1016.5 hPa North 7.4 km/h 5.6 km/h 70 % 0 mm
23:29 9.2 °C 4 °C 1016.5 hPa North 8 km/h 6.6 km/h 70 % 0 mm
23:34 9.1 °C 4.1 °C 1016.1 hPa North 11.1 km/h 7.4 km/h 71 % 0 mm
23:39 9.2 °C 4.2 °C 1016.1 hPa North 13 km/h 8.9 km/h 71 % 0 mm
23:44 9.2 °C 4.2 °C 1016.1 hPa North 9.3 km/h 8.4 km/h 71 % 0 mm
23:49 9.1 °C 4.1 °C 1016.1 hPa North 11.1 km/h 7.1 km/h 71 % 0 mm
23:54 9.1 °C 4.1 °C 1016.1 hPa North 11.3 km/h 6.9 km/h 71 % 0 mm
23:59 9 °C 4 °C 1016.1 hPa North 9.3 km/h 6.3 km/h 71 % 0 mm
Ararat Weather
Compliments of Weather Underground - 2.25 mb
Click here to send mail.


ABOUT

Live weather data from Ararat, Victoria, Australia, 3377
Data uploaded from Cumulus every 5 minutes to Weather Underground.
This site then downloads the raw data for formatting and display.
Metric and imperial data can be displayed. Graphs and historical data available.
Includes Sun and Moon times and rain image live from BOM.

Check out Ararat Weather on Facebook, Twitter and Google +

Help support ongoing costs by checking out the ads





Follow @AraratWeather